Time;durP1;ratioP1;P1;durP2;ratioP2;P2;SDS_P1;SDS_P2;PMS_P1;PMS_P2;Temp;Humidity;BMP_temperature;BMP_pressure;BME280_temperature;BME280_humidity;BME280_pressure;Samples;Min_cycle;Max_cycle;Signal;HPM_P1;HPM_P2
2021/08/05 00:01:20;;;;;;;6.82;5.97;;;15.70;99.90;;;;;;5010678;28;20049;-74
2021/08/05 00:03:45;;;;;;;8.93;6.22;;;15.60;99.90;;;;;;5009134;28;20117;-74
2021/08/05 00:06:11;;;;;;;7.78;6.28;;;15.70;99.90;;;;;;5013067;28;20032;-74
2021/08/05 00:08:36;;;;;;;7.82;6.60;;;15.80;99.90;;;;;;5010680;28;20025;-74
2021/08/05 00:11:02;;;;;;;8.10;6.55;;;15.90;99.90;;;;;;5008437;28;20030;-74
2021/08/05 00:13:28;;;;;;;6.75;6.10;;;15.70;99.90;;;;;;5011892;28;20045;-74
2021/08/05 00:15:54;;;;;;;9.35;6.38;;;15.70;99.90;;;;;;5005723;28;20389;-75
2021/08/05 00:18:20;;;;;;;7.38;6.22;;;15.70;99.90;;;;;;5012668;28;20030;-74
2021/08/05 00:20:45;;;;;;;9.23;6.10;;;15.60;99.90;;;;;;5004245;28;20026;-74
2021/08/05 00:23:39;;;;;;;8.15;6.00;;;15.50;99.90;;;;;;4993769;28;20022;-74
2021/08/05 00:26:04;;;;;;;8.23;6.30;;;15.30;99.90;;;;;;5022643;28;20026;-74
2021/08/05 00:28:30;;;;;;;7.15;6.45;;;15.50;99.90;;;;;;5012523;28;20044;-74
2021/08/05 00:30:55;;;;;;;9.75;6.18;;;15.50;99.90;;;;;;5000456;28;20034;-75
2021/08/05 00:33:21;;;;;;;8.30;6.22;;;15.60;99.90;;;;;;5006678;28;20109;-74
2021/08/05 00:35:46;;;;;;;8.43;5.90;;;15.70;99.90;;;;;;5005635;28;20408;-75
2021/08/05 00:38:12;;;;;;;6.65;5.95;;;15.70;99.90;;;;;;5003086;28;20061;-75
2021/08/05 00:40:37;;;;;;;7.80;5.60;;;15.70;99.90;;;;;;5003202;28;20112;-75
2021/08/05 00:43:03;;;;;;;7.82;5.95;;;15.70;99.90;;;;;;5003019;28;20730;-74
2021/08/05 00:45:28;;;;;;;9.05;6.30;;;15.70;99.90;;;;;;5002081;28;20026;-74
2021/08/05 00:47:54;;;;;;;6.90;5.95;;;15.70;99.90;;;;;;5010651;28;20018;-75
2021/08/05 00:50:19;;;;;;;8.38;6.53;;;15.80;99.90;;;;;;5004480;28;20489;-75
2021/08/05 00:52:45;;;;;;;7.18;5.80;;;15.80;99.90;;;;;;5004590;28;20105;-75
2021/08/05 00:55:11;;;;;;;7.05;5.65;;;15.70;99.90;;;;;;5007361;28;20022;-75
2021/08/05 00:57:37;;;;;;;7.97;6.55;;;15.60;99.90;;;;;;5004606;28;20487;-74
2021/08/05 01:00:03;;;;;;;7.13;5.60;;;15.40;99.90;;;;;;5007587;28;20079;-75
2021/08/05 01:02:35;;;;;;;11.63;6.78;;;15.40;99.90;;;;;;5006999;28;20049;-74
2021/08/05 01:05:01;;;;;;;9.57;6.40;;;15.30;99.90;;;;;;5001060;28;20023;-74
2021/08/05 01:07:45;;;;;;;8.35;6.63;;;15.20;99.90;;;;;;5003900;28;20028;-75
2021/08/05 01:10:27;;;;;;;7.13;6.43;;;15.10;99.90;;;;;;4999473;28;20400;-74
2021/08/05 01:13:14;;;;;;;8.73;5.97;;;15.10;99.90;;;;;;5008182;28;20030;-74
2021/08/05 01:15:42;;;;;;;7.95;5.68;;;15.30;99.90;;;;;;4996442;28;20022;-74
2021/08/05 01:18:10;;;;;;;6.80;5.82;;;15.40;99.90;;;;;;5008702;28;20040;-74
2021/08/05 01:20:40;;;;;;;8.30;6.30;;;15.50;99.90;;;;;;5012241;28;20026;-75
2021/08/05 01:23:32;;;;;;;7.60;5.70;;;15.60;99.90;;;;;;5003615;28;20023;-75
2021/08/05 01:26:09;;;;;;;7.03;5.63;;;15.50;99.90;;;;;;5007961;28;20029;-74
2021/08/05 01:28:36;;;;;;;6.32;5.22;;;15.30;99.90;;;;;;4995541;28;20571;-74
2021/08/05 01:31:04;;;;;;;7.40;5.35;;;15.20;99.90;;;;;;5009912;28;20530;-74
2021/08/05 01:33:30;;;;;;;7.25;5.63;;;15.20;99.90;;;;;;5002802;28;20492;-75
2021/08/05 01:35:58;;;;;;;6.88;5.60;;;15.20;99.90;;;;;;4996632;28;20034;-74
2021/08/05 01:38:24;;;;;;;7.25;5.22;;;15.30;99.90;;;;;;5008322;28;20566;-74
2021/08/05 01:40:52;;;;;;;7.32;4.68;;;15.40;99.90;;;;;;5003310;28;20058;-74
2021/08/05 01:43:19;;;;;;;6.32;4.50;;;15.40;99.90;;;;;;5005745;28;20532;-74
2021/08/05 01:45:45;;;;;;;6.05;5.45;;;15.50;99.90;;;;;;5001897;28;20026;-74
2021/08/05 01:48:14;;;;;;;5.85;5.07;;;15.60;99.90;;;;;;4999231;28;20077;-74
2021/08/05 01:50:43;;;;;;;7.28;5.30;;;15.50;99.90;;;;;;5001968;28;20057;-74
2021/08/05 01:53:09;;;;;;;6.78;5.22;;;15.40;99.90;;;;;;5002904;28;20030;-74
2021/08/05 01:55:35;;;;;;;7.97;5.55;;;15.40;99.90;;;;;;5001878;28;20036;-75
2021/08/05 01:58:00;;;;;;;6.80;5.50;;;15.40;99.90;;;;;;4996138;28;20061;-74
2021/08/05 02:00:26;;;;;;;5.63;4.90;;;15.30;99.90;;;;;;5002081;28;20034;-74
2021/08/05 02:02:55;;;;;;;7.50;5.05;;;15.20;99.90;;;;;;4992727;28;20033;-74
2021/08/05 02:05:55;;;;;;;6.07;5.03;;;15.30;99.90;;;;;;5002592;28;20032;-74
2021/08/05 02:08:25;;;;;;;5.53;5.00;;;15.20;99.90;;;;;;4986693;28;20030;-74
2021/08/05 02:10:51;;;;;;;5.85;4.95;;;15.30;99.90;;;;;;5004146;28;20072;-74
2021/08/05 02:13:28;;;;;;;6.10;4.45;;;15.20;99.90;;;;;;5002032;28;20500;-74
2021/08/05 02:15:59;;;;;;;7.97;5.20;;;15.30;99.90;;;;;;5011518;28;20384;-74
2021/08/05 02:18:30;;;;;;;5.35;4.63;;;15.30;99.90;;;;;;5006994;28;20048;-74
2021/08/05 02:20:57;;;;;;;6.35;5.22;;;15.20;99.90;;;;;;5002949;28;20056;-74
2021/08/05 02:23:25;;;;;;;7.30;5.07;;;15.30;99.90;;;;;;5005436;28;20022;-73
2021/08/05 02:25:51;;;;;;;7.15;5.25;;;15.40;99.90;;;;;;5015784;28;20033;-73
2021/08/05 02:28:18;;;;;;;5.85;4.95;;;15.30;99.90;;;;;;5005865;28;20026;-73
2021/08/05 02:30:44;;;;;;;5.78;4.90;;;15.20;99.90;;;;;;5010635;28;20022;-73
2021/08/05 02:33:12;;;;;;;5.53;4.90;;;15.20;99.90;;;;;;5008908;28;20037;-75
2021/08/05 02:35:41;;;;;;;5.30;4.72;;;15.10;99.90;;;;;;5002977;28;20044;-75
2021/08/05 02:38:07;;;;;;;5.50;4.88;;;15.10;99.90;;;;;;5004716;28;20121;-75
2021/08/05 02:40:34;;;;;;;5.93;4.38;;;15.10;99.90;;;;;;5015956;28;20543;-75
2021/08/05 02:43:02;;;;;;;5.32;4.45;;;15.10;99.90;;;;;;5005457;28;20026;-75
2021/08/05 02:45:29;;;;;;;5.38;4.65;;;15.20;99.90;;;;;;5009625;28;20027;-75
2021/08/05 02:47:56;;;;;;;5.25;4.30;;;15.20;99.90;;;;;;5008812;28;20391;-74
2021/08/05 02:50:21;;;;;;;6.45;5.10;;;15.20;99.90;;;;;;5001634;28;20092;-74
2021/08/05 02:52:47;;;;;;;5.65;4.88;;;15.20;99.90;;;;;;5015189;28;20424;-74
2021/08/05 02:55:13;;;;;;;4.93;4.38;;;15.20;99.90;;;;;;5001969;28;20026;-74
2021/08/05 02:57:39;;;;;;;5.03;4.50;;;15.20;99.90;;;;;;5002490;28;20026;-75
2021/08/05 03:00:06;;;;;;;4.97;4.40;;;15.30;99.90;;;;;;5008688;28;20073;-74
2021/08/05 03:02:33;;;;;;;6.03;4.57;;;15.20;99.90;;;;;;5008477;28;20646;-75
2021/08/05 03:04:59;;;;;;;6.60;5.47;;;15.20;99.90;;;;;;4990720;28;20121;-75
2021/08/05 03:07:25;;;;;;;6.65;5.03;;;14.90;99.90;;;;;;5001361;28;20556;-75
2021/08/05 03:09:51;;;;;;;6.18;5.45;;;14.80;99.90;;;;;;5001651;28;20049;-75
2021/08/05 03:12:16;;;;;;;6.43;5.00;;;14.80;99.90;;;;;;5000623;28;20130;-75
2021/08/05 03:14:42;;;;;;;7.97;5.22;;;14.80;99.90;;;;;;5007454;28;20037;-75
2021/08/05 03:17:07;;;;;;;5.15;4.65;;;14.80;99.90;;;;;;5008382;28;20077;-75
2021/08/05 03:19:33;;;;;;;6.55;4.90;;;15.00;99.90;;;;;;5001715;28;20037;-75
2021/08/05 03:21:58;;;;;;;5.68;4.88;;;15.10;99.90;;;;;;5014502;28;20018;-75
2021/08/05 03:24:24;;;;;;;6.32;5.05;;;15.10;99.90;;;;;;5001347;28;20026;-75
2021/08/05 03:26:49;;;;;;;6.25;4.57;;;15.20;99.90;;;;;;5014577;28;20412;-75
2021/08/05 03:29:15;;;;;;;6.97;4.60;;;15.20;99.90;;;;;;5001545;28;20485;-75
2021/08/05 03:31:40;;;;;;;5.47;4.32;;;15.30;99.90;;;;;;5001442;28;20043;-75
2021/08/05 03:34:06;;;;;;;4.95;4.45;;;15.30;99.90;;;;;;5006748;28;20041;-74
2021/08/05 03:36:31;;;;;;;5.75;4.72;;;15.30;99.90;;;;;;5006049;28;20025;-75
2021/08/05 03:38:57;;;;;;;5.13;4.57;;;15.30;99.90;;;;;;5001095;28;20029;-75
2021/08/05 03:41:22;;;;;;;5.68;4.88;;;15.10;99.90;;;;;;5001815;28;20031;-75
2021/08/05 03:43:48;;;;;;;6.93;5.40;;;15.00;99.90;;;;;;5007784;28;20030;-75
2021/08/05 03:46:13;;;;;;;9.40;5.47;;;14.90;99.90;;;;;;5006589;28;20064;-74
2021/08/05 03:48:39;;;;;;;5.50;4.95;;;14.80;99.90;;;;;;5000835;28;20105;-76
2021/08/05 03:51:05;;;;;;;7.05;5.45;;;14.90;99.90;;;;;;5002394;28;20117;-74
2021/08/05 03:53:32;;;;;;;5.78;4.88;;;15.10;99.90;;;;;;5008042;28;20026;-74
2021/08/05 03:55:57;;;;;;;6.03;5.30;;;15.30;99.90;;;;;;4996005;28;20040;-75
2021/08/05 03:58:23;;;;;;;6.05;5.13;;;15.20;99.90;;;;;;5008149;28;20113;-74
2021/08/05 04:00:48;;;;;;;5.93;5.32;;;15.30;99.90;;;;;;5006783;28;20072;-74
2021/08/05 04:03:14;;;;;;;6.85;5.65;;;15.10;99.90;;;;;;5014016;28;20029;-75
2021/08/05 04:05:39;;;;;;;7.13;5.30;;;14.90;99.90;;;;;;5001696;28;20397;-74
2021/08/05 04:08:05;;;;;;;6.63;5.10;;;14.90;99.90;;;;;;5007258;28;20110;-74
2021/08/05 04:10:31;;;;;;;6.70;5.78;;;14.90;99.90;;;;;;5005438;28;20404;-74
2021/08/05 04:12:56;;;;;;;6.70;5.47;;;15.00;99.90;;;;;;5001053;28;20396;-74
2021/08/05 04:15:22;;;;;;;6.85;4.97;;;15.00;99.90;;;;;;4987728;28;20027;-74
2021/08/05 04:17:48;;;;;;;5.90;5.22;;;15.10;99.90;;;;;;5006465;28;20034;-75
2021/08/05 04:20:14;;;;;;;6.80;5.32;;;15.00;99.90;;;;;;4993256;28;20492;-74
2021/08/05 04:22:40;;;;;;;7.38;5.30;;;15.10;99.90;;;;;;4994474;28;20104;-74
2021/08/05 04:25:07;;;;;;;7.00;5.88;;;15.10;99.90;;;;;;5006462;28;20024;-75
2021/08/05 04:27:33;;;;;;;9.93;5.45;;;15.10;99.90;;;;;;5000411;28;20022;-74
2021/08/05 04:29:59;;;;;;;7.53;5.50;;;15.10;99.90;;;;;;5000471;28;20034;-74
2021/08/05 04:32:25;;;;;;;9.02;5.70;;;15.20;99.90;;;;;;5006785;28;20061;-74
2021/08/05 04:34:50;;;;;;;5.45;4.95;;;15.30;99.90;;;;;;5006271;28;20633;-75
2021/08/05 04:37:17;;;;;;;6.68;5.03;;;15.30;99.90;;;;;;4999087;28;20441;-75
2021/08/05 04:39:43;;;;;;;8.05;5.03;;;15.30;99.90;;;;;;5000356;28;20030;-74
2021/08/05 04:42:08;;;;;;;7.45;5.28;;;15.40;99.90;;;;;;5015302;28;20026;-74
2021/08/05 04:44:34;;;;;;;6.40;4.75;;;15.60;99.90;;;;;;5015620;28;20018;-74
2021/08/05 04:47:00;;;;;;;5.60;4.55;;;15.50;99.90;;;;;;5014009;28;20025;-74
2021/08/05 04:49:26;;;;;;;5.40;4.57;;;15.50;99.90;;;;;;5001207;28;20111;-75
2021/08/05 04:51:53;;;;;;;6.38;4.75;;;15.50;99.90;;;;;;5007405;28;20031;-73
2021/08/05 04:54:20;;;;;;;5.05;4.55;;;15.50;99.90;;;;;;4995045;28;20039;-74
2021/08/05 04:56:46;;;;;;;6.70;5.45;;;15.60;99.90;;;;;;4989364;28;20030;-74
2021/08/05 04:59:12;;;;;;;8.25;5.80;;;15.30;99.90;;;;;;4998929;28;20030;-74
2021/08/05 05:01:37;;;;;;;6.93;5.35;;;15.20;99.90;;;;;;5005125;28;20026;-76
2021/08/05 05:04:03;;;;;;;8.25;6.30;;;15.10;99.90;;;;;;5004605;28;20018;-75
2021/08/05 05:06:29;;;;;;;7.10;6.40;;;15.10;99.90;;;;;;5000119;28;20056;-73
2021/08/05 05:08:55;;;;;;;10.45;6.97;;;14.70;99.90;;;;;;5001331;28;20029;-76
2021/08/05 05:11:20;;;;;;;7.45;6.63;;;14.40;99.90;;;;;;5006786;28;20026;-73
2021/08/05 05:13:46;;;;;;;9.05;6.15;;;14.50;99.90;;;;;;4992857;28;20473;-73
2021/08/05 05:16:11;;;;;;;6.53;5.80;;;14.70;99.90;;;;;;4978286;28;20425;-72
2021/08/05 05:18:37;;;;;;;7.72;5.82;;;14.90;99.90;;;;;;4992875;28;20034;-72
2021/08/05 05:21:02;;;;;;;9.35;5.72;;;15.20;99.90;;;;;;5006059;28;20041;-73
2021/08/05 05:23:28;;;;;;;8.40;5.70;;;15.50;99.90;;;;;;5004883;28;20026;-73
2021/08/05 05:25:53;;;;;;;6.65;5.95;;;15.50;99.90;;;;;;5012202;28;20112;-77
2021/08/05 05:28:19;;;;;;;8.13;6.03;;;15.40;99.90;;;;;;5012353;28;20040;-73
2021/08/05 05:30:45;;;;;;;6.50;5.50;;;15.50;99.90;;;;;;5012143;28;20030;-73
2021/08/05 05:33:10;;;;;;;6.65;5.15;;;15.50;99.90;;;;;;5012295;28;20034;-73
2021/08/05 05:35:37;;;;;;;9.85;5.63;;;15.70;99.90;;;;;;5012001;28;20523;-73
2021/08/05 05:38:03;;;;;;;9.25;6.72;;;15.60;99.90;;;;;;5012302;28;20471;-73
2021/08/05 05:40:28;;;;;;;9.23;6.32;;;15.40;99.90;;;;;;5011973;28;20022;-73
2021/08/05 05:42:54;;;;;;;7.80;6.25;;;15.20;99.90;;;;;;5012163;28;20026;-73
2021/08/05 05:45:21;;;;;;;7.88;6.18;;;15.20;99.90;;;;;;5011924;28;20101;-73
2021/08/05 05:47:47;;;;;;;7.15;6.00;;;15.30;99.90;;;;;;5011903;28;20058;-72
2021/08/05 05:50:14;;;;;;;7.28;6.15;;;15.30;99.90;;;;;;5011835;28;20091;-73
2021/08/05 05:52:41;;;;;;;7.30;6.57;;;15.30;99.90;;;;;;5012078;28;20045;-73
2021/08/05 05:55:07;;;;;;;9.23;6.75;;;15.30;99.90;;;;;;5011853;28;20040;-73
2021/08/05 05:57:33;;;;;;;7.97;6.55;;;15.30;99.90;;;;;;5012101;28;20026;-73
2021/08/05 05:59:58;;;;;;;15.52;7.70;;;15.30;99.90;;;;;;5010617;28;20034;-73
2021/08/05 06:02:24;;;;;;;8.32;6.20;;;15.40;99.90;;;;;;5011892;28;20022;-73
2021/08/05 06:04:49;;;;;;;9.60;7.10;;;15.60;99.90;;;;;;5012421;28;20026;-73
2021/08/05 06:07:15;;;;;;;9.90;7.05;;;15.60;99.90;;;;;;5012835;28;20030;-73
2021/08/05 06:09:40;;;;;;;9.50;6.57;;;15.50;99.90;;;;;;5011710;28;20030;-73
2021/08/05 06:12:06;;;;;;;12.77;6.75;;;15.60;99.90;;;;;;5010845;28;20030;-73
2021/08/05 06:14:31;;;;;;;11.35;7.32;;;15.60;99.90;;;;;;5004774;28;20068;-73
2021/08/05 06:16:57;;;;;;;9.13;6.97;;;15.80;99.90;;;;;;4992301;28;20488;-73
2021/08/05 06:19:22;;;;;;;8.07;6.70;;;15.80;99.90;;;;;;4992242;28;20022;-73
2021/08/05 06:21:48;;;;;;;7.57;6.85;;;15.90;99.90;;;;;;4992497;28;20520;-77
2021/08/05 06:24:14;;;;;;;9.50;6.38;;;16.00;99.90;;;;;;4998040;28;20033;-75
2021/08/05 06:26:40;;;;;;;11.68;6.68;;;16.10;99.90;;;;;;5000042;28;20069;-74
2021/08/05 06:29:10;;;;;;;8.55;6.38;;;16.10;99.90;;;;;;4990930;28;20026;-73
2021/08/05 06:31:36;;;;;;;8.65;6.70;;;16.10;99.90;;;;;;4992035;28;20030;-74
2021/08/05 06:34:02;;;;;;;10.32;6.32;;;15.90;99.90;;;;;;5010988;28;20715;-73
2021/08/05 06:36:28;;;;;;;7.80;5.47;;;16.10;99.90;;;;;;5011573;28;20056;-73
2021/08/05 06:38:54;;;;;;;7.40;6.68;;;16.40;99.90;;;;;;4992544;28;20034;-73
2021/08/05 06:41:19;;;;;;;7.18;5.53;;;16.30;99.90;;;;;;4991886;28;20416;-73
2021/08/05 06:43:45;;;;;;;6.80;6.10;;;16.40;99.90;;;;;;4991742;28;20027;-73
2021/08/05 06:46:11;;;;;;;6.70;6.00;;;16.20;99.90;;;;;;4991676;28;20022;-74
2021/08/05 06:48:36;;;;;;;7.85;6.10;;;16.30;99.90;;;;;;4991874;28;20496;-73
2021/08/05 06:51:02;;;;;;;12.25;5.95;;;16.20;99.90;;;;;;4991854;28;20412;-73
2021/08/05 06:53:27;;;;;;;8.10;6.43;;;16.40;99.90;;;;;;4991973;28;20022;-74
2021/08/05 06:55:53;;;;;;;6.85;6.15;;;16.50;99.90;;;;;;5003372;28;20100;-74
2021/08/05 06:58:22;;;;;;;7.07;6.00;;;16.30;99.90;;;;;;4993267;28;20092;-73
2021/08/05 07:00:51;;;;;;;10.15;6.13;;;16.50;99.90;;;;;;4993394;28;20049;-73
2021/08/05 07:03:16;;;;;;;8.10;6.53;;;16.70;99.90;;;;;;4995361;28;20026;-73
2021/08/05 07:05:42;;;;;;;9.00;6.68;;;16.80;99.90;;;;;;4995082;28;20081;-73
2021/08/05 07:08:07;;;;;;;9.95;6.03;;;16.70;99.90;;;;;;5000825;28;20076;-73
2021/08/05 07:10:33;;;;;;;7.32;6.43;;;17.00;99.90;;;;;;5013432;28;20076;-72
2021/08/05 07:12:59;;;;;;;8.80;6.55;;;16.90;99.90;;;;;;5014713;28;20566;-73
2021/08/05 07:15:24;;;;;;;10.25;6.97;;;16.90;99.90;;;;;;5000516;28;20485;-74
2021/08/05 07:17:50;;;;;;;8.77;7.20;;;17.20;99.90;;;;;;4995035;28;20480;-73
2021/08/05 07:20:17;;;;;;;9.15;7.53;;;17.00;99.90;;;;;;4994897;28;20116;-73
2021/08/05 07:22:43;;;;;;;9.05;7.25;;;16.80;99.90;;;;;;4994876;28;20576;-73
2021/08/05 07:25:11;;;;;;;7.68;5.85;;;17.10;99.90;;;;;;4994774;28;20101;-73
2021/08/05 07:27:37;;;;;;;8.13;6.70;;;17.30;99.90;;;;;;4994813;28;20027;-73
2021/08/05 07:30:05;;;;;;;9.13;7.13;;;17.30;99.90;;;;;;4993694;28;20064;-72
2021/08/05 07:32:30;;;;;;;10.70;8.75;;;17.50;99.90;;;;;;4994774;28;20091;-72
2021/08/05 07:34:56;;;;;;;11.65;8.82;;;17.10;99.90;;;;;;4994659;28;20034;-72
2021/08/05 07:37:21;;;;;;;12.77;9.95;;;17.30;99.90;;;;;;4994676;28;20049;-73
2021/08/05 07:39:47;;;;;;;12.45;10.13;;;17.20;99.90;;;;;;4994577;28;20034;-72
2021/08/05 07:42:15;;;;;;;10.25;9.13;;;17.30;99.90;;;;;;4994486;28;20018;-73
2021/08/05 07:44:41;;;;;;;13.60;10.02;;;17.50;99.90;;;;;;4994336;28;20421;-73
2021/08/05 07:47:06;;;;;;;9.32;8.30;;;17.60;99.90;;;;;;4993408;28;20489;-73
2021/08/05 07:49:32;;;;;;;9.13;8.25;;;17.70;99.90;;;;;;4994272;28;20031;-75
2021/08/05 07:51:59;;;;;;;11.45;8.60;;;17.70;99.90;;;;;;4994448;28;20054;-72
2021/08/05 07:54:24;;;;;;;8.90;7.80;;;17.70;99.90;;;;;;4993983;28;20036;-72
2021/08/05 07:56:50;;;;;;;12.02;9.30;;;17.70;99.90;;;;;;4994158;28;20030;-72
2021/08/05 07:59:15;;;;;;;11.15;8.88;;;17.70;99.90;;;;;;4994238;28;20057;-72
2021/08/05 08:01:41;;;;;;;11.75;8.82;;;17.90;99.90;;;;;;4993928;28;20069;-72
2021/08/05 08:04:06;;;;;;;10.90;9.82;;;17.80;99.90;;;;;;4992872;28;20030;-72
2021/08/05 08:06:32;;;;;;;11.25;9.32;;;17.70;99.90;;;;;;5012890;28;20025;-72
2021/08/05 08:08:57;;;;;;;10.90;9.02;;;17.60;99.90;;;;;;5013690;28;20105;-73
2021/08/05 08:11:23;;;;;;;10.25;8.63;;;17.90;99.90;;;;;;5013389;28;20480;-72
2021/08/05 08:13:52;;;;;;;11.57;9.05;;;18.10;99.90;;;;;;5011318;28;20058;-72
2021/08/05 08:16:22;;;;;;;10.70;9.20;;;18.20;99.90;;;;;;5008837;28;20023;-72
2021/08/05 08:18:49;;;;;;;10.05;9.02;;;18.20;99.90;;;;;;4993974;28;20030;-72
2021/08/05 08:21:15;;;;;;;10.00;8.88;;;18.30;99.90;;;;;;4993713;28;20026;-72
2021/08/05 08:23:42;;;;;;;9.57;8.57;;;18.40;99.90;;;;;;5007812;28;20088;-72
2021/08/05 08:26:07;;;;;;;10.32;8.88;;;18.30;99.90;;;;;;5013218;28;20084;-72
2021/08/05 08:28:33;;;;;;;10.15;9.00;;;18.10;99.90;;;;;;5013321;28;20524;-72
2021/08/05 08:30:59;;;;;;;9.55;8.65;;;18.30;99.90;;;;;;5013242;28;20116;-72
2021/08/05 08:33:24;;;;;;;12.05;7.93;;;18.30;99.90;;;;;;5013181;28;20112;-72
2021/08/05 08:35:50;;;;;;;9.13;8.05;;;18.50;99.90;;;;;;5012902;28;20538;-72
2021/08/05 08:38:17;;;;;;;8.55;7.70;;;18.50;99.90;;;;;;5011918;28;20026;-72
2021/08/05 08:40:43;;;;;;;10.65;8.15;;;18.50;99.90;;;;;;5012988;28;20026;-72
2021/08/05 08:43:09;;;;;;;9.23;7.55;;;18.40;99.90;;;;;;5013030;28;20045;-72
2021/08/05 08:45:36;;;;;;;8.68;7.78;;;18.40;99.90;;;;;;5012878;28;20472;-72
2021/08/05 08:48:03;;;;;;;8.63;7.72;;;18.60;99.90;;;;;;5012950;28;20029;-73
2021/08/05 08:50:32;;;;;;;7.97;6.90;;;18.70;99.90;;;;;;5012705;28;20056;-71
2021/08/05 08:53:03;;;;;;;8.20;7.35;;;18.80;99.90;;;;;;5012855;28;20025;-71
2021/08/05 08:55:30;;;;;;;7.72;6.93;;;18.90;99.90;;;;;;5012645;28;20021;-72
2021/08/05 08:57:59;;;;;;;10.43;7.50;;;19.00;99.90;;;;;;4996506;28;20026;-73
2021/08/05 09:00:24;;;;;;;8.55;7.22;;;18.80;99.90;;;;;;4983688;28;20061;-73
2021/08/05 09:02:50;;;;;;;9.32;8.07;;;18.70;99.90;;;;;;4996203;28;20050;-75
2021/08/05 09:05:15;;;;;;;8.35;6.75;;;19.00;99.90;;;;;;5012205;28;20026;-76
2021/08/05 09:07:44;;;;;;;7.97;6.32;;;19.00;99.90;;;;;;4996334;28;20072;-75
2021/08/05 09:10:10;;;;;;;8.43;6.35;;;19.30;99.90;;;;;;4993418;28;20022;-76
2021/08/05 09:12:36;;;;;;;7.22;6.30;;;19.40;99.90;;;;;;4991727;28;20030;-75
2021/08/05 09:15:02;;;;;;;7.22;6.40;;;19.10;99.90;;;;;;4993121;28;20037;-73
2021/08/05 09:17:35;;;;;;;7.97;7.18;;;19.10;99.90;;;;;;4995778;28;20022;-73
2021/08/05 09:20:07;;;;;;;9.45;6.80;;;18.60;99.90;;;;;;5012266;28;20034;-72
2021/08/05 09:22:35;;;;;;;6.63;5.20;;;18.80;99.90;;;;;;4997129;28;20098;-72
2021/08/05 09:25:27;;;;;;;11.25;5.70;;;19.00;99.90;;;;;;4993185;28;20106;-72
2021/08/05 09:27:56;;;;;;;6.82;5.68;;;19.40;99.90;;;;;;4992701;28;20045;-73
2021/08/05 09:30:35;;;;;;;6.28;5.60;;;19.90;99.90;;;;;;4992629;28;20551;-73
2021/08/05 09:33:07;;;;;;;6.47;5.55;;;20.60;99.90;;;;;;4992603;28;20114;-73
2021/08/05 09:35:33;;;;;;;7.05;5.88;;;20.20;99.90;;;;;;4992481;28;20425;-73
2021/08/05 09:38:33;;;;;;;6.35;5.75;;;19.80;99.90;;;;;;5004144;28;20026;-73
2021/08/05 09:41:07;;;;;;;6.35;5.47;;;19.90;99.90;;;;;;5009685;28;20092;-73
2021/08/05 09:43:34;;;;;;;6.93;5.95;;;20.10;99.90;;;;;;5007635;28;20539;-73
2021/08/05 09:45:59;;;;;;;5.82;5.32;;;20.20;99.90;;;;;;5010925;28;20049;-73
2021/08/05 09:48:44;;;;;;;5.43;4.90;;;20.70;99.90;;;;;;5012172;28;20018;-73
2021/08/05 09:51:16;;;;;;;6.13;4.50;;;21.00;99.90;;;;;;5011923;28;20108;-73
2021/08/05 09:54:02;;;;;;;5.55;5.05;;;21.00;99.90;;;;;;5011962;28;20665;-73
2021/08/05 09:56:34;;;;;;;4.55;3.70;;;20.60;99.90;;;;;;5010331;28;20434;-73
2021/08/05 09:59:13;;;;;;;6.78;4.70;;;20.80;99.90;;;;;;5006054;28;20034;-73
2021/08/05 10:02:00;;;;;;;9.52;4.78;;;20.70;99.90;;;;;;4998635;28;20058;-73
2021/08/05 10:04:29;;;;;;;4.85;4.10;;;20.50;99.90;;;;;;4992652;28;20049;-73
2021/08/05 10:06:57;;;;;;;4.82;4.30;;;20.40;99.90;;;;;;4998726;28;20349;-73
2021/08/05 10:09:23;;;;;;;4.60;3.78;;;20.40;99.90;;;;;;5011585;28;20145;-73
2021/08/05 10:11:48;;;;;;;7.00;4.78;;;20.10;99.90;;;;;;5010516;28;20113;-73
2021/08/05 10:14:22;;;;;;;6.63;4.30;;;20.00;99.90;;;;;;5007276;28;20092;-72
2021/08/05 10:16:49;;;;;;;7.53;5.60;;;19.50;99.90;;;;;;5002794;28;20052;-73
2021/08/05 10:19:17;;;;;;;6.97;5.53;;;19.50;99.90;;;;;;5011854;28;20049;-73
2021/08/05 10:21:43;;;;;;;6.05;5.10;;;19.40;99.90;;;;;;5002841;28;20019;-73
2021/08/05 10:24:09;;;;;;;6.57;5.13;;;19.40;99.90;;;;;;4991857;28;20038;-73
2021/08/05 10:26:35;;;;;;;6.57;5.05;;;19.60;99.90;;;;;;4991824;28;20034;-73
2021/08/05 10:29:01;;;;;;;5.38;4.88;;;19.80;99.90;;;;;;4991876;28;20401;-73
2021/08/05 10:31:27;;;;;;;4.70;4.20;;;19.90;99.90;;;;;;4990439;28;20036;-73
2021/08/05 10:33:52;;;;;;;5.40;4.68;;;19.90;99.90;;;;;;4993431;28;20034;-73
2021/08/05 10:36:18;;;;;;;4.85;4.28;;;20.40;99.90;;;;;;4994119;28;20018;-73
2021/08/05 10:38:44;;;;;;;5.20;4.43;;;21.10;99.90;;;;;;4995614;28;20031;-74
2021/08/05 10:41:11;;;;;;;4.70;4.20;;;21.20;99.90;;;;;;4995726;28;20058;-74
2021/08/05 10:43:37;;;;;;;4.40;4.00;;;21.10;99.90;;;;;;5000558;28;20579;-74
2021/08/05 10:46:03;;;;;;;4.00;3.60;;;21.20;99.90;;;;;;5003801;28;20097;-74
2021/08/05 10:48:29;;;;;;;4.15;3.35;;;21.30;99.90;;;;;;4995617;28;20433;-73
2021/08/05 10:50:56;;;;;;;3.92;3.53;;;21.40;99.90;;;;;;4995529;28;20042;-74
2021/08/05 10:53:44;;;;;;;5.80;3.72;;;21.80;99.90;;;;;;5007214;28;20474;-74
2021/08/05 10:56:20;;;;;;;3.55;2.90;;;21.70;99.90;;;;;;4995306;28;20031;-74
2021/08/05 10:59:07;;;;;;;6.80;2.83;;;21.60;99.90;;;;;;4995387;28;20023;-74
2021/08/05 11:01:46;;;;;;;4.57;2.25;;;21.70;99.90;;;;;;4995198;28;20138;-73
2021/08/05 11:04:33;;;;;;;4.85;2.83;;;22.10;99.90;;;;;;4995269;28;20489;-74
2021/08/05 11:07:22;;;;;;;4.30;2.70;;;22.00;99.90;;;;;;4993901;28;20036;-74
2021/08/05 11:10:12;;;;;;;2.60;2.40;;;21.90;99.90;;;;;;5002229;28;20388;-74
2021/08/05 11:12:41;;;;;;;2.88;2.58;;;22.10;99.90;;;;;;5008005;28;20053;-74
2021/08/05 11:15:29;;;;;;;3.17;2.53;;;21.60;99.90;;;;;;4994558;28;20072;-75
2021/08/05 11:18:07;;;;;;;2.78;2.53;;;21.10;99.90;;;;;;4997421;28;20444;-74
2021/08/05 11:20:34;;;;;;;3.97;2.95;;;21.10;99.90;;;;;;5012497;28;20026;-74
2021/08/05 11:23:00;;;;;;;4.40;2.85;;;21.10;99.90;;;;;;5003952;28;20677;-74
2021/08/05 11:25:25;;;;;;;3.13;2.83;;;21.10;99.90;;;;;;5001310;28;20027;-75
2021/08/05 11:28:20;;;;;;;5.47;2.90;;;21.60;99.90;;;;;;5006736;28;20106;-74
2021/08/05 11:31:02;;;;;;;2.88;2.67;;;22.50;99.90;;;;;;4995740;28;20041;-75
2021/08/05 11:33:33;;;;;;;3.58;3.22;;;23.00;99.90;;;;;;4995796;28;20519;-75
2021/08/05 11:39:22;;;;;;;4.68;3.58;;;22.60;99.90;;;;;;5002596;28;20109;-75
2021/08/05 11:41:51;;;;;;;5.40;3.97;;;22.50;99.90;;;;;;5002359;28;20053;-75
2021/08/05 11:44:36;;;;;;;4.95;4.25;;;22.60;99.90;;;;;;5005659;28;20434;-74
2021/08/05 11:47:05;;;;;;;4.07;3.70;;;22.80;99.90;;;;;;5008759;28;20038;-75
2021/08/05 11:49:38;;;;;;;4.07;3.67;;;22.60;99.90;;;;;;5008806;28;20439;-75
2021/08/05 11:52:14;;;;;;;4.60;4.20;;;22.80;99.90;;;;;;4990626;28;20029;-75
2021/08/05 11:54:49;;;;;;;18.92;6.13;;;23.00;99.90;;;;;;4999671;28;20026;-75
2021/08/05 11:57:18;;;;;;;3.63;3.33;;;23.90;99.90;;;;;;4995617;28;20038;-75
2021/08/05 11:59:46;;;;;;;14.85;6.35;;;24.00;99.90;;;;;;5007324;28;20030;-75
2021/08/05 12:02:14;;;;;;;4.15;3.45;;;23.70;99.90;;;;;;5005957;28;20492;-75
2021/08/05 12:04:41;;;;;;;6.68;4.10;;;23.90;99.90;;;;;;5001947;28;20018;-75
2021/08/05 12:07:25;;;;;;;5.65;3.65;;;24.20;99.90;;;;;;5003927;28;20026;-75
2021/08/05 12:09:56;;;;;;;4.85;3.72;;;24.00;99.90;;;;;;4988484;28;20029;-74
2021/08/05 12:12:23;;;;;;;3.67;3.38;;;23.30;99.90;;;;;;5001228;28;20077;-74
2021/08/05 12:15:08;;;;;;;3.92;3.20;;;22.40;99.90;;;;;;5005453;28;20417;-75
2021/08/05 12:17:55;;;;;;;4.30;3.80;;;22.20;99.90;;;;;;5006749;28;20018;-75
2021/08/05 12:20:28;;;;;;;5.20;3.70;;;21.80;99.90;;;;;;5008309;28;20057;-74
2021/08/05 12:22:58;;;;;;;4.93;3.72;;;21.90;99.90;;;;;;5006602;28;20026;-75
2021/08/05 12:25:40;;;;;;;5.13;3.80;;;22.10;99.90;;;;;;4993672;28;20026;-75
2021/08/05 12:28:13;;;;;;;5.68;3.97;;;22.10;99.90;;;;;;4994612;28;20022;-74
2021/08/05 12:30:44;;;;;;;5.85;3.72;;;21.80;99.90;;;;;;4994677;28;20493;-75
2021/08/05 12:33:16;;;;;;;8.43;3.65;;;22.10;99.90;;;;;;4994773;28;20040;-75
2021/08/05 12:36:07;;;;;;;3.67;3.35;;;22.10;99.90;;;;;;5007239;28;20027;-75
2021/08/05 12:39:10;;;;;;;5.53;4.15;;;22.50;99.90;;;;;;5008451;28;20018;-75
2021/08/05 12:41:49;;;;;;;4.50;3.50;;;21.80;99.90;;;;;;5008013;28;20036;-74
2021/08/05 12:44:20;;;;;;;3.50;3.20;;;21.70;99.90;;;;;;4994031;28;20122;-75
2021/08/05 12:46:55;;;;;;;4.47;3.20;;;21.30;99.90;;;;;;4996468;28;20026;-75
2021/08/05 12:49:33;;;;;;;4.00;3.58;;;21.60;99.90;;;;;;5013462;28;20041;-75
2021/08/05 12:52:00;;;;;;;4.28;3.78;;;21.70;99.90;;;;;;4994691;28;20070;-74
2021/08/05 12:54:27;;;;;;;6.75;3.70;;;21.50;99.90;;;;;;4992618;28;20026;-75
2021/08/05 12:56:57;;;;;;;7.53;4.00;;;21.90;99.90;;;;;;5007071;28;20026;-74